Time;durP1;ratioP1;P1;durP2;ratioP2;P2;SDS_P1;SDS_P2;PMS_P1;PMS_P2;Temp;Humidity;BMP_temperature;BMP_pressure;BME280_temperature;BME280_humidity;BME280_pressure;Samples;Min_cycle;Max_cycle;Signal;HPM_P1;HPM_P2
2024/03/13 00:02:10;;;;;;;22.75;18.90;;;;;;;;;;10291475;28;20527;-64
2024/03/13 00:07:11;;;;;;;27.52;20.60;;;;;;;;;;10291493;28;20079;-65
2024/03/13 00:12:09;;;;;;;24.52;18.70;;;;;;;;;;10290242;28;20077;-65
2024/03/13 00:17:10;;;;;;;22.08;18.60;;;;;;;;;;10293327;28;20652;-65
2024/03/13 00:22:11;;;;;;;21.80;18.58;;;;;;;;;;10293719;28;20079;-64
2024/03/13 00:27:09;;;;;;;24.10;18.83;;;;;;;;;;10297026;28;20498;-65
2024/03/13 00:32:08;;;;;;;21.30;18.92;;;;;;;;;;10304347;28;20079;-64
2024/03/13 00:37:06;;;;;;;22.02;18.35;;;;;;;;;;10298607;28;20090;-64
2024/03/13 00:42:06;;;;;;;23.88;19.08;;;;;;;;;;10301205;28;20095;-65
2024/03/13 00:47:05;;;;;;;22.08;18.98;;;;;;;;;;10299395;28;20068;-64
2024/03/13 00:52:04;;;;;;;25.90;19.17;;;;;;;;;;10300365;28;20069;-65
2024/03/13 00:57:03;;;;;;;27.52;19.55;;;;;;;;;;10297645;28;20073;-65
2024/03/13 01:02:03;;;;;;;23.30;18.15;;;;;;;;;;10299079;28;20080;-65
2024/03/13 01:07:02;;;;;;;20.52;17.38;;;;;;;;;;10298371;28;20087;-65
2024/03/13 01:12:00;;;;;;;24.33;18.83;;;;;;;;;;10298214;28;20107;-65
2024/03/13 01:17:00;;;;;;;22.65;18.75;;;;;;;;;;10298071;28;20073;-65
2024/03/13 01:22:05;;;;;;;23.90;18.08;;;;;;;;;;10296263;28;20083;-65
2024/03/13 01:27:04;;;;;;;23.85;18.73;;;;;;;;;;10298692;28;20076;-65
2024/03/13 01:32:02;;;;;;;22.27;18.10;;;;;;;;;;10299677;28;20076;-65
2024/03/13 01:58:08;;;;;;;19.83;17.05;;;;;;;;;;10295892;28;20083;-65
2024/03/13 02:03:08;;;;;;;21.88;17.77;;;;;;;;;;10297637;28;20068;-65
2024/03/13 02:08:10;;;;;;;24.40;19.52;;;;;;;;;;10297020;28;20474;-65
2024/03/13 02:13:09;;;;;;;25.90;18.60;;;;;;;;;;10295788;28;20489;-65
2024/03/13 02:18:16;;;;;;;20.67;17.70;;;;;;;;;;10296968;28;20068;-66
2024/03/13 02:23:19;;;;;;;21.52;18.35;;;;;;;;;;10294828;28;20056;-66
2024/03/13 02:28:17;;;;;;;22.52;17.70;;;;;;;;;;10276764;28;20076;-65
2024/03/13 02:33:16;;;;;;;21.63;16.90;;;;;;;;;;10278655;28;20075;-66
2024/03/13 02:38:14;;;;;;;22.52;17.63;;;;;;;;;;10278266;28;20103;-66
2024/03/13 02:43:12;;;;;;;24.00;18.13;;;;;;;;;;10278891;28;20060;-65
2024/03/13 02:48:12;;;;;;;21.85;17.83;;;;;;;;;;10275364;28;20087;-66
2024/03/13 02:53:10;;;;;;;23.10;17.65;;;;;;;;;;10277085;28;20056;-66
2024/03/13 02:58:08;;;;;;;23.23;18.30;;;;;;;;;;10275560;28;20083;-66
2024/03/13 03:03:11;;;;;;;27.20;19.65;;;;;;;;;;10277757;28;20510;-66
2024/03/13 03:08:09;;;;;;;20.20;17.65;;;;;;;;;;10277206;28;20068;-67
2024/03/13 03:13:08;;;;;;;25.38;19.70;;;;;;;;;;10274920;28;20689;-66
2024/03/13 03:18:10;;;;;;;23.50;18.67;;;;;;;;;;10277073;28;20091;-65
2024/03/13 03:23:09;;;;;;;20.98;17.08;;;;;;;;;;10275726;28;20073;-65
2024/03/13 03:28:11;;;;;;;19.55;16.33;;;;;;;;;;10275212;28;20069;-66
2024/03/13 03:33:09;;;;;;;21.75;18.05;;;;;;;;;;10263432;28;20350;-65
2024/03/13 03:38:08;;;;;;;25.52;19.83;;;;;;;;;;10276852;28;20091;-66
2024/03/13 03:43:06;;;;;;;18.98;16.92;;;;;;;;;;10274278;28;20072;-65
2024/03/13 03:48:08;;;;;;;22.35;16.73;;;;;;;;;;10277072;28;20068;-66
2024/03/13 03:53:10;;;;;;;21.55;18.08;;;;;;;;;;10274517;28;20087;-66
2024/03/13 03:58:08;;;;;;;19.60;17.00;;;;;;;;;;10275364;28;20091;-66
2024/03/13 04:03:09;;;;;;;23.35;18.58;;;;;;;;;;10281083;28;20076;-65
2024/03/13 04:08:07;;;;;;;22.75;18.70;;;;;;;;;;10283517;28;20533;-65
2024/03/13 04:13:05;;;;;;;20.63;17.27;;;;;;;;;;10272352;28;20087;-64
2024/03/13 04:18:05;;;;;;;19.05;15.60;;;;;;;;;;10282665;28;20079;-66
2024/03/13 04:23:05;;;;;;;19.00;15.45;;;;;;;;;;10283073;28;20080;-64
2024/03/13 04:28:04;;;;;;;19.73;16.13;;;;;;;;;;10289551;28;20068;-66
2024/03/13 04:33:03;;;;;;;21.70;17.77;;;;;;;;;;10284634;28;20103;-65
2024/03/13 04:38:03;;;;;;;19.65;16.95;;;;;;;;;;10281942;28;20064;-65
2024/03/13 04:43:01;;;;;;;20.42;17.75;;;;;;;;;;10281739;28;20076;-65
2024/03/13 04:48:00;;;;;;;21.65;17.20;;;;;;;;;;10290062;28;20524;-64
2024/03/13 04:52:58;;;;;;;23.17;18.85;;;;;;;;;;10288311;28;20068;-64
2024/03/13 04:57:57;;;;;;;21.23;17.15;;;;;;;;;;10296733;28;20072;-64
2024/03/13 05:02:55;;;;;;;19.75;15.70;;;;;;;;;;10280384;28;20497;-65
2024/03/13 05:07:54;;;;;;;17.45;15.02;;;;;;;;;;10283356;28;20065;-64
2024/03/13 05:12:53;;;;;;;18.63;16.45;;;;;;;;;;10281230;28;20514;-64
2024/03/13 05:17:52;;;;;;;95.90;61.38;;;;;;;;;;10283438;28;20437;-65
2024/03/13 05:22:51;;;;;;;23.20;18.02;;;;;;;;;;10279672;28;20069;-66
2024/03/13 05:27:50;;;;;;;16.20;13.52;;;;;;;;;;10277970;28;20485;-65
2024/03/13 05:32:48;;;;;;;15.55;12.40;;;;;;;;;;10281025;28;20477;-66
2024/03/13 05:37:47;;;;;;;15.75;13.70;;;;;;;;;;10283821;28;20075;-66
2024/03/13 05:42:45;;;;;;;14.68;13.07;;;;;;;;;;10266692;28;20120;-65
2024/03/13 05:47:44;;;;;;;15.23;13.68;;;;;;;;;;10273869;28;20073;-66
2024/03/13 05:52:42;;;;;;;14.98;13.30;;;;;;;;;;10276243;28;20080;-65
2024/03/13 05:57:41;;;;;;;15.90;13.38;;;;;;;;;;10275390;28;20484;-66
2024/03/13 06:02:40;;;;;;;14.55;13.13;;;;;;;;;;10273608;28;20083;-65
2024/03/13 06:07:39;;;;;;;12.57;10.80;;;;;;;;;;10276102;28;20095;-65
2024/03/13 06:12:37;;;;;;;11.07;9.23;;;;;;;;;;10278042;28;20088;-66
2024/03/13 06:17:36;;;;;;;11.13;9.93;;;;;;;;;;10275211;28;20072;-65
2024/03/13 06:22:35;;;;;;;8.75;7.65;;;;;;;;;;10277837;28;20072;-65
2024/03/13 06:27:34;;;;;;;13.55;12.25;;;;;;;;;;10276260;28;20068;-66
2024/03/13 06:32:32;;;;;;;107.72;61.55;;;;;;;;;;10277138;28;20068;-67
2024/03/13 06:37:31;;;;;;;10.45;9.07;;;;;;;;;;10278790;28;20083;-65
2024/03/13 06:42:30;;;;;;;8.05;6.97;;;;;;;;;;10276862;28;20076;-65
2024/03/13 06:47:30;;;;;;;9.77;8.38;;;;;;;;;;10285074;28;20084;-66
2024/03/13 06:52:28;;;;;;;7.47;6.75;;;;;;;;;;10284275;28;20068;-66
2024/03/13 06:57:27;;;;;;;7.20;6.50;;;;;;;;;;10275769;28;20072;-66
2024/03/13 07:02:28;;;;;;;8.50;5.97;;;;;;;;;;10276189;28;20083;-65
2024/03/13 07:07:26;;;;;;;6.95;6.25;;;;;;;;;;10276208;28;20075;-66
2024/03/13 07:12:25;;;;;;;6.93;6.22;;;;;;;;;;10275423;28;20080;-65
2024/03/13 07:17:23;;;;;;;7.30;6.35;;;;;;;;;;10274416;28;20068;-65
2024/03/13 07:22:22;;;;;;;7.30;6.40;;;;;;;;;;10275398;28;20075;-66
2024/03/13 07:27:20;;;;;;;8.70;7.38;;;;;;;;;;10275145;28;20072;-66
2024/03/13 07:32:21;;;;;;;8.52;7.75;;;;;;;;;;10274275;28;20075;-66
2024/03/13 07:37:19;;;;;;;12.38;10.88;;;;;;;;;;10275305;28;20080;-65
2024/03/13 07:42:17;;;;;;;17.45;13.65;;;;;;;;;;10275136;28;20079;-64
2024/03/13 07:47:16;;;;;;;8.55;7.72;;;;;;;;;;10274479;28;20426;-65
2024/03/13 07:52:15;;;;;;;10.02;8.75;;;;;;;;;;10274613;28;20538;-66
2024/03/13 07:57:13;;;;;;;12.10;9.82;;;;;;;;;;10280578;28;20085;-66
2024/03/13 08:02:12;;;;;;;9.23;8.10;;;;;;;;;;10306860;28;20087;-65
2024/03/13 08:07:11;;;;;;;9.48;8.43;;;;;;;;;;10275066;28;20079;-66
2024/03/13 08:12:27;;;;;;;10.68;9.50;;;;;;;;;;10280629;28;20540;-66
2024/03/13 08:17:43;;;;;;;12.80;10.07;;;;;;;;;;10278471;28;20430;-67
2024/03/13 08:22:59;;;;;;;15.65;13.75;;;;;;;;;;10276185;28;20079;-65
2024/03/13 08:28:15;;;;;;;13.27;12.05;;;;;;;;;;10277110;28;20076;-65
2024/03/13 08:33:31;;;;;;;11.13;9.93;;;;;;;;;;10274990;28;20076;-67
2024/03/13 08:38:48;;;;;;;12.45;11.10;;;;;;;;;;10276965;28;20539;-65
2024/03/13 08:44:04;;;;;;;13.20;11.65;;;;;;;;;;10276526;28;20079;-66
2024/03/13 08:49:19;;;;;;;43.10;31.80;;;;;;;;;;10282774;28;20644;-66
2024/03/13 08:54:35;;;;;;;17.63;15.48;;;;;;;;;;10285539;28;20075;-66
2024/03/13 08:59:51;;;;;;;18.45;15.75;;;;;;;;;;10283795;28;20083;-66
2024/03/13 09:05:08;;;;;;;15.10;13.60;;;;;;;;;;10282712;28;20636;-67
2024/03/13 09:10:24;;;;;;;15.75;14.15;;;;;;;;;;10282873;28;20730;-66
2024/03/13 09:15:23;;;;;;;12.68;11.57;;;;;;;;;;10281009;28;20065;-66
2024/03/13 09:20:25;;;;;;;13.52;12.20;;;;;;;;;;10280028;28;20502;-66
2024/03/13 09:25:24;;;;;;;15.63;14.07;;;;;;;;;;10281629;28;20068;-66
2024/03/13 09:30:22;;;;;;;12.60;11.40;;;;;;;;;;10280144;28;20064;-66
2024/03/13 09:35:21;;;;;;;13.38;12.07;;;;;;;;;;10268845;28;20490;-65
2024/03/13 09:40:20;;;;;;;13.80;12.50;;;;;;;;;;10278130;28;20079;-67
2024/03/13 09:45:19;;;;;;;15.30;13.85;;;;;;;;;;10280392;28;20497;-66
2024/03/13 09:50:17;;;;;;;14.48;13.02;;;;;;;;;;10279477;28;20513;-67
2024/03/13 09:55:18;;;;;;;12.57;11.45;;;;;;;;;;10278893;28;20077;-68
2024/03/13 10:00:19;;;;;;;14.68;13.27;;;;;;;;;;10277198;28;20088;-67
2024/03/13 10:05:18;;;;;;;20.33;18.30;;;;;;;;;;10280973;28;20068;-68
2024/03/13 10:10:18;;;;;;;17.60;15.88;;;;;;;;;;10283618;28;20579;-68
2024/03/13 10:15:18;;;;;;;13.85;12.52;;;;;;;;;;10276155;28;20065;-68
2024/03/13 10:20:16;;;;;;;13.75;12.43;;;;;;;;;;10280295;28;20076;-67
2024/03/13 10:25:19;;;;;;;13.20;11.90;;;;;;;;;;10279395;28;20057;-68
2024/03/13 10:30:17;;;;;;;12.13;11.02;;;;;;;;;;10275495;28;20075;-68
2024/03/13 10:35:16;;;;;;;17.02;15.32;;;;;;;;;;10278214;28;20068;-68
2024/03/13 10:40:15;;;;;;;14.48;13.18;;;;;;;;;;10276768;28;20055;-68
2024/03/13 10:45:14;;;;;;;15.82;14.13;;;;;;;;;;10275534;28;20079;-67
2024/03/13 10:50:12;;;;;;;17.23;15.55;;;;;;;;;;10277394;28;20083;-68
2024/03/13 10:55:12;;;;;;;37.42;29.17;;;;;;;;;;10276331;28;20068;-68
2024/03/13 11:00:11;;;;;;;29.77;23.38;;;;;;;;;;10276224;28;20144;-67
2024/03/13 11:05:10;;;;;;;16.02;14.45;;;;;;;;;;10275469;28;20661;-68
2024/03/13 11:10:09;;;;;;;20.60;18.58;;;;;;;;;;10281952;28;20517;-68
2024/03/13 11:15:08;;;;;;;20.80;18.75;;;;;;;;;;10280628;28;20520;-67
2024/03/13 11:20:07;;;;;;;19.33;17.52;;;;;;;;;;10276577;28;20074;-68
2024/03/13 11:25:07;;;;;;;18.85;17.15;;;;;;;;;;10276689;28;20556;-67
2024/03/13 11:30:06;;;;;;;18.92;17.25;;;;;;;;;;10274041;28;20179;-67
2024/03/13 11:35:05;;;;;;;37.05;29.63;;;;;;;;;;10273376;28;20476;-67
2024/03/13 11:40:04;;;;;;;13.90;12.57;;;;;;;;;;10275481;28;20072;-67
2024/03/13 11:45:15;;;;;;;12.98;11.55;;;;;;;;;;10274483;28;20486;-67
2024/03/13 11:50:15;;;;;;;18.00;16.15;;;;;;;;;;10275364;28;20072;-66
2024/03/13 11:55:22;;;;;;;13.18;11.88;;;;;;;;;;10276752;28;20083;-67
2024/03/13 12:00:21;;;;;;;13.73;12.45;;;;;;;;;;10274521;28;20084;-67
2024/03/13 12:05:29;;;;;;;18.33;16.40;;;;;;;;;;10273732;28;20064;-66
2024/03/13 12:10:29;;;;;;;27.15;21.38;;;;;;;;;;10278063;28;20087;-67
2024/03/13 12:15:27;;;;;;;12.25;11.23;;;;;;;;;;10273299;28;20064;-67
2024/03/13 12:20:33;;;;;;;17.65;15.88;;;;;;;;;;10275937;28;20087;-66
2024/03/13 12:25:33;;;;;;;19.75;16.33;;;;;;;;;;10281932;28;20068;-67
2024/03/13 12:30:32;;;;;;;16.02;14.23;;;;;;;;;;10284001;28;20080;-67
2024/03/13 12:35:32;;;;;;;16.55;14.98;;;;;;;;;;10282292;28;20068;-65
2024/03/13 12:40:33;;;;;;;13.95;12.65;;;;;;;;;;10281375;28;20088;-65
2024/03/13 12:45:31;;;;;;;15.20;13.75;;;;;;;;;;10282653;28;20087;-65
2024/03/13 12:50:31;;;;;;;14.07;12.57;;;;;;;;;;10281781;28;20072;-66
2024/03/13 12:55:30;;;;;;;10.73;9.68;;;;;;;;;;10279811;28;20542;-66
2024/03/13 13:00:29;;;;;;;13.68;8.75;;;;;;;;;;10286561;28;20072;-66
2024/03/13 13:05:28;;;;;;;13.70;11.98;;;;;;;;;;10281244;28;20080;-66
2024/03/13 13:10:27;;;;;;;13.90;12.70;;;;;;;;;;10281007;28;20486;-66
2024/03/13 13:15:25;;;;;;;11.13;9.98;;;;;;;;;;10284590;28;20083;-66
2024/03/13 13:20:24;;;;;;;10.75;9.23;;;;;;;;;;10281841;28;20076;-66
2024/03/13 13:25:22;;;;;;;12.45;11.15;;;;;;;;;;10280284;28;20064;-66
2024/03/13 13:30:21;;;;;;;11.15;10.07;;;;;;;;;;10270341;28;20446;-66
2024/03/13 13:35:20;;;;;;;13.82;12.43;;;;;;;;;;10279795;28;20068;-66
2024/03/13 13:40:19;;;;;;;12.73;10.38;;;;;;;;;;10281973;28;20072;-67
2024/03/13 13:45:19;;;;;;;15.45;13.80;;;;;;;;;;10280176;28;20080;-67
2024/03/13 13:50:18;;;;;;;13.90;11.88;;;;;;;;;;10278995;28;20568;-65
2024/03/13 13:55:17;;;;;;;14.88;12.48;;;;;;;;;;10279273;28;20107;-66
2024/03/13 14:00:16;;;;;;;13.85;12.45;;;;;;;;;;10278911;28;20087;-65
2024/03/13 14:05:16;;;;;;;14.07;12.75;;;;;;;;;;10280508;28;20076;-65
2024/03/13 14:10:15;;;;;;;13.20;10.60;;;;;;;;;;10285323;28;20088;-65
2024/03/13 14:15:17;;;;;;;15.02;12.02;;;;;;;;;;10277647;28;20088;-65
2024/03/13 14:20:19;;;;;;;32.05;26.65;;;;;;;;;;10282853;28;20072;-65
2024/03/13 14:25:19;;;;;;;16.67;15.00;;;;;;;;;;10279054;28;20497;-66
2024/03/13 14:30:18;;;;;;;12.73;11.52;;;;;;;;;;10279493;28;20423;-65
2024/03/13 14:35:19;;;;;;;19.02;17.05;;;;;;;;;;10277445;28;20083;-66
2024/03/13 14:40:20;;;;;;;12.15;10.95;;;;;;;;;;10278315;28;20508;-66
2024/03/13 14:45:19;;;;;;;12.32;11.23;;;;;;;;;;10276571;28;20071;-65
2024/03/13 14:50:18;;;;;;;11.65;10.65;;;;;;;;;;10276729;28;20080;-65
2024/03/13 14:55:18;;;;;;;13.75;12.45;;;;;;;;;;10276867;28;20441;-65
2024/03/13 15:00:17;;;;;;;18.20;16.33;;;;;;;;;;10266862;28;20445;-66
2024/03/13 15:05:16;;;;;;;20.17;16.35;;;;;;;;;;10275464;28;20091;-66
2024/03/13 15:10:16;;;;;;;43.20;37.65;;;;;;;;;;10272747;28;20091;-64
2024/03/13 15:15:14;;;;;;;47.88;39.20;;;;;;;;;;10232807;28;20438;-66
2024/03/13 15:20:13;;;;;;;29.60;25.40;;;;;;;;;;10247706;28;20099;-66
2024/03/13 15:25:12;;;;;;;23.92;20.33;;;;;;;;;;10246259;28;20088;-66
2024/03/13 15:30:10;;;;;;;16.92;15.05;;;;;;;;;;10240982;28;20069;-66
2024/03/13 15:35:13;;;;;;;16.15;14.55;;;;;;;;;;10248833;28;20095;-66
2024/03/13 15:40:15;;;;;;;15.75;14.00;;;;;;;;;;10246140;28;20065;-65
2024/03/13 15:45:15;;;;;;;15.18;13.88;;;;;;;;;;10244743;28;20107;-66
2024/03/13 15:50:13;;;;;;;17.92;16.02;;;;;;;;;;10245991;28;20065;-66
2024/03/13 15:55:26;;;;;;;14.27;12.88;;;;;;;;;;10248729;28;20076;-65
2024/03/13 16:00:25;;;;;;;13.95;12.65;;;;;;;;;;10245579;28;20095;-67
2024/03/13 16:05:26;;;;;;;13.93;11.65;;;;;;;;;;10238512;28;20086;-67
2024/03/13 16:10:27;;;;;;;13.77;12.38;;;;;;;;;;10247171;28;20084;-66
2024/03/13 16:15:27;;;;;;;26.52;21.05;;;;;;;;;;10277629;28;20064;-66
2024/03/13 16:20:26;;;;;;;34.47;27.27;;;;;;;;;;10277324;28;20471;-65
2024/03/13 16:25:24;;;;;;;22.25;19.85;;;;;;;;;;10278669;28;20287;-63
2024/03/13 16:30:23;;;;;;;24.65;20.83;;;;;;;;;;10279620;28;20668;-65
2024/03/13 16:35:22;;;;;;;52.00;39.15;;;;;;;;;;10272768;28;20064;-64
2024/03/13 16:40:20;;;;;;;19.00;17.10;;;;;;;;;;10275906;28;20092;-65
2024/03/13 16:45:20;;;;;;;16.15;13.10;;;;;;;;;;10275970;28;20064;-64
2024/03/13 16:50:18;;;;;;;12.73;11.52;;;;;;;;;;10275230;28;20071;-65
2024/03/13 16:55:17;;;;;;;15.68;14.25;;;;;;;;;;10271913;28;20635;-65
2024/03/13 17:00:15;;;;;;;15.15;13.68;;;;;;;;;;10279202;28;20480;-64
2024/03/13 17:05:15;;;;;;;15.85;14.15;;;;;;;;;;10274006;28;20075;-65
2024/03/13 17:10:15;;;;;;;15.50;14.05;;;;;;;;;;10264437;28;20123;-64
2024/03/13 17:15:14;;;;;;;19.30;15.32;;;;;;;;;;10280717;28;20083;-65
2024/03/13 17:20:14;;;;;;;19.38;17.40;;;;;;;;;;10280899;28;20076;-63
2024/03/13 17:25:13;;;;;;;19.55;17.20;;;;;;;;;;10283040;28;20071;-63
2024/03/13 17:30:12;;;;;;;21.73;19.55;;;;;;;;;;10281031;28;20079;-63
2024/03/13 17:35:11;;;;;;;25.50;19.45;;;;;;;;;;10282195;28;20080;-64
2024/03/13 17:40:11;;;;;;;17.13;14.93;;;;;;;;;;10282335;28;20080;-64
2024/03/13 17:45:15;;;;;;;;;;;;;;;;;;10282041;28;20473;-65
2024/03/13 17:50:14;;;;;;;24.05;21.65;;;;;;;;;;10298803;28;20035;-66
2024/03/13 17:55:12;;;;;;;18.23;16.48;;;;;;;;;;10286433;28;20076;-65
2024/03/13 18:00:11;;;;;;;13.68;12.38;;;;;;;;;;10281741;28;20072;-66
2024/03/13 18:05:11;;;;;;;13.05;11.70;;;;;;;;;;10283494;28;20083;-66
2024/03/13 18:10:10;;;;;;;12.77;11.50;;;;;;;;;;10279927;28;20081;-65
2024/03/13 18:15:09;;;;;;;13.88;12.50;;;;;;;;;;10284775;28;20068;-65
2024/03/13 18:20:08;;;;;;;16.80;15.10;;;;;;;;;;10278660;28;20083;-65
2024/03/13 18:25:08;;;;;;;12.68;11.48;;;;;;;;;;10288972;28;20092;-66
2024/03/13 18:30:12;;;;;;;11.20;9.98;;;;;;;;;;10279168;28;20076;-67
2024/03/13 18:35:11;;;;;;;8.00;7.30;;;;;;;;;;10278610;28;20071;-65
2024/03/13 18:40:13;;;;;;;7.05;6.35;;;;;;;;;;10279686;28;20068;-67
2024/03/13 18:45:12;;;;;;;7.32;6.65;;;;;;;;;;10279020;28;20601;-65
2024/03/13 18:50:14;;;;;;;7.00;5.30;;;;;;;;;;10278556;28;20072;-66
2024/03/13 18:55:14;;;;;;;21.65;19.58;;;;;;;;;;10284071;28;20159;-65
2024/03/13 19:00:14;;;;;;;10.85;8.40;;;;;;;;;;10281544;28;20224;-66
2024/03/13 19:05:13;;;;;;;5.10;4.65;;;;;;;;;;10276655;28;20080;-66
2024/03/13 19:10:25;;;;;;;6.57;5.65;;;;;;;;;;10278464;28;20080;-66
2024/03/13 19:15:26;;;;;;;6.20;5.70;;;;;;;;;;10275478;28;20072;-65
2024/03/13 19:20:30;;;;;;;5.70;5.15;;;;;;;;;;10277601;28;20053;-66
2024/03/13 19:25:29;;;;;;;5.57;5.07;;;;;;;;;;10272469;28;20080;-66
2024/03/13 19:30:28;;;;;;;6.85;6.25;;;;;;;;;;10275414;28;20536;-64
2024/03/13 19:35:27;;;;;;;4.70;4.30;;;;;;;;;;10275991;28;20468;-66
2024/03/13 19:40:25;;;;;;;7.55;6.75;;;;;;;;;;10276915;28;20068;-67
2024/03/13 19:45:24;;;;;;;10.35;9.35;;;;;;;;;;10272953;28;20079;-66
2024/03/13 19:50:22;;;;;;;16.40;14.73;;;;;;;;;;10277123;28;21292;-66
2024/03/13 19:55:21;;;;;;;11.95;10.63;;;;;;;;;;10274812;28;20061;-67
2024/03/13 20:00:19;;;;;;;15.20;13.57;;;;;;;;;;10274807;28;20072;-66
2024/03/13 20:05:18;;;;;;;9.10;7.95;;;;;;;;;;10259557;28;20549;-67
2024/03/13 20:10:21;;;;;;;4.88;4.00;;;;;;;;;;10275269;28;20072;-66
2024/03/13 20:15:20;;;;;;;3.15;2.85;;;;;;;;;;10273174;28;20071;-66
2024/03/13 20:20:19;;;;;;;4.28;3.88;;;;;;;;;;10306848;28;20072;-66
2024/03/13 20:25:17;;;;;;;6.10;4.00;;;;;;;;;;10276301;28;20087;-66
2024/03/13 20:30:15;;;;;;;3.17;2.60;;;;;;;;;;10273041;28;20065;-65
2024/03/13 20:35:14;;;;;;;2.90;2.70;;;;;;;;;;10275713;28;20064;-64
2024/03/13 20:40:13;;;;;;;3.45;3.15;;;;;;;;;;10275008;28;20064;-66
2024/03/13 20:45:11;;;;;;;4.53;2.92;;;;;;;;;;10278670;28;20084;-66
2024/03/13 20:50:10;;;;;;;5.15;4.75;;;;;;;;;;10280463;28;20111;-66
2024/03/13 20:55:09;;;;;;;4.07;3.75;;;;;;;;;;10281948;28;20073;-65
2024/03/13 21:00:12;;;;;;;3.80;3.50;;;;;;;;;;10280095;28;20118;-66
2024/03/13 21:05:11;;;;;;;4.03;3.15;;;;;;;;;;10280862;28;20076;-65
2024/03/13 21:10:09;;;;;;;3.85;3.45;;;;;;;;;;10299304;28;20080;-64
2024/03/13 21:15:09;;;;;;;3.83;3.53;;;;;;;;;;10314394;28;20091;-65
2024/03/13 21:20:09;;;;;;;4.07;3.67;;;;;;;;;;10280178;28;20123;-65
2024/03/13 21:25:09;;;;;;;3.55;3.25;;;;;;;;;;10282025;28;20085;-66
2024/03/13 21:30:09;;;;;;;3.72;3.42;;;;;;;;;;10279181;28;20073;-66
2024/03/13 21:35:09;;;;;;;3.80;3.10;;;;;;;;;;10297286;28;20080;-66
2024/03/13 21:40:15;;;;;;;2.60;2.40;;;;;;;;;;10263867;28;20037;-66
2024/03/13 21:45:14;;;;;;;4.43;3.60;;;;;;;;;;10280585;28;20087;-65
2024/03/13 21:50:13;;;;;;;3.10;2.90;;;;;;;;;;10279526;28;20083;-66
2024/03/13 21:55:13;;;;;;;4.00;3.60;;;;;;;;;;10279398;28;20068;-63
2024/03/13 22:00:14;;;;;;;3.65;3.35;;;;;;;;;;10277808;28;20076;-64
2024/03/13 22:05:13;;;;;;;4.00;3.60;;;;;;;;;;10277159;28;20085;-64
2024/03/13 22:10:11;;;;;;;5.07;4.50;;;;;;;;;;10280942;28;20072;-63
2024/03/13 22:15:12;;;;;;;3.97;3.60;;;;;;;;;;10278288;28;20498;-65
2024/03/13 22:20:11;;;;;;;7.90;4.47;;;;;;;;;;10279214;28;20080;-65
2024/03/13 22:25:10;;;;;;;4.07;3.67;;;;;;;;;;10275944;28;20083;-65
2024/03/13 22:30:09;;;;;;;4.03;3.70;;;;;;;;;;10278239;28;20064;-65
2024/03/13 22:35:08;;;;;;;3.58;3.28;;;;;;;;;;10279526;28;20083;-65
2024/03/13 22:40:11;;;;;;;3.42;3.13;;;;;;;;;;10278619;28;20422;-65
2024/03/13 22:45:11;;;;;;;3.58;3.28;;;;;;;;;;10276288;28;20088;-65
2024/03/13 22:50:11;;;;;;;3.08;2.88;;;;;;;;;;10267433;28;20052;-65
2024/03/13 22:55:10;;;;;;;3.13;2.92;;;;;;;;;;10277735;28;20079;-65
2024/03/13 23:00:19;;;;;;;4.63;3.80;;;;;;;;;;10277051;28;20454;-65
2024/03/13 23:05:18;;;;;;;3.90;3.20;;;;;;;;;;10277036;28;20084;-65
2024/03/13 23:10:16;;;;;;;3.40;3.10;;;;;;;;;;10282307;28;20076;-65
2024/03/13 23:15:15;;;;;;;3.65;3.35;;;;;;;;;;10277350;28;20073;-65
2024/03/13 23:20:13;;;;;;;3.58;3.25;;;;;;;;;;10276030;28;20064;-65
2024/03/13 23:25:12;;;;;;;3.42;3.13;;;;;;;;;;10275224;28;20073;-65
2024/03/13 23:30:11;;;;;;;4.05;3.75;;;;;;;;;;10272857;28;20060;-64
2024/03/13 23:35:10;;;;;;;4.15;3.80;;;;;;;;;;10286657;28;20500;-65
2024/03/13 23:40:10;;;;;;;4.05;3.75;;;;;;;;;;10274131;28;20072;-65
2024/03/13 23:45:10;;;;;;;4.68;4.18;;;;;;;;;;10274945;28;20632;-64
2024/03/13 23:50:09;;;;;;;4.20;3.90;;;;;;;;;;10275620;28;20069;-65
2024/03/13 23:55:08;;;;;;;4.50;4.10;;;;;;;;;;10274774;28;20175;-65
